Time;durP1;ratioP1;P1;durP2;ratioP2;P2;SDS_P1;SDS_P2;PMS_P1;PMS_P2;Temp;Humidity;BMP_temperature;BMP_pressure;BME280_temperature;BME280_humidity;BME280_pressure;Samples;Min_cycle;Max_cycle;Signal;HPM_P1;HPM_P2
2021/01/13 00:02:10;;;;;;;81.68;34.13;;;25.60;2201.60;;;;;;5095691;28;20091;-69
2021/01/13 00:04:35;;;;;;;80.97;30.13;;;25.60;2201.60;;;;;;5095749;28;20101;-70
2021/01/13 00:07:01;;;;;;;80.72;30.13;;;25.70;2201.60;;;;;;5095653;28;20450;-70
2021/01/13 00:09:27;;;;;;;82.63;29.58;;;25.60;2201.60;;;;;;5095387;28;20407;-66
2021/01/13 00:11:56;;;;;;;85.05;30.45;;;25.60;2201.60;;;;;;5092755;28;20074;-69
2021/01/13 00:14:23;;;;;;;84.83;32.60;;;25.60;2201.60;;;;;;5095322;28;20028;-75
2021/01/13 00:16:49;;;;;;;92.00;33.95;;;25.60;2201.60;;;;;;5094568;28;20020;-74
2021/01/13 00:19:15;;;;;;;90.65;33.85;;;25.70;2201.60;;;;;;5095270;28;20048;-72
2021/01/13 00:21:40;;;;;;;105.50;40.20;;;25.70;2201.60;;;;;;5095639;28;20476;-70
2021/01/13 00:24:07;;;;;;;103.65;39.42;;;25.60;2201.60;;;;;;5095626;28;20020;-70
2021/01/13 00:26:33;;;;;;;106.15;37.58;;;25.70;2201.60;;;;;;5095843;28;20016;-71
2021/01/13 00:28:59;;;;;;;88.97;31.85;;;25.70;2201.60;;;;;;5095351;28;20020;-70
2021/01/13 00:31:24;;;;;;;81.57;31.25;;;25.60;2201.60;;;;;;5095212;28;20032;-69
2021/01/13 00:33:50;;;;;;;87.97;31.98;;;0.90;2201.60;;;;;;5095313;28;20028;-70
2021/01/13 00:36:25;;;;;;;90.55;30.80;;;0.90;2201.60;;;;;;5095172;28;20028;-71
2021/01/13 00:38:51;;;;;;;89.05;30.65;;;0.70;2201.60;;;;;;5095259;28;20046;-70
2021/01/13 00:41:17;;;;;;;90.43;31.85;;;0.60;2201.60;;;;;;5094967;28;20070;-70
2021/01/13 00:43:43;;;;;;;94.13;36.78;;;0.70;2201.60;;;;;;5095435;28;20516;-70
2021/01/13 00:46:09;;;;;;;95.47;35.72;;;0.80;2201.60;;;;;;5095392;28;20150;-69
2021/01/13 00:48:34;;;;;;;101.20;38.03;;;0.80;2201.60;;;;;;5095109;28;20054;-70
2021/01/13 00:51:00;;;;;;;101.65;35.13;;;0.90;2201.60;;;;;;5095108;28;20024;-71
2021/01/13 00:53:26;;;;;;;106.22;37.38;;;0.90;2201.60;;;;;;5095216;28;20434;-70
2021/01/13 00:55:51;;;;;;;108.32;37.72;;;25.60;2201.60;;;;;;5095245;28;20028;-70
2021/01/13 00:58:17;;;;;;;103.80;38.00;;;25.60;2201.60;;;;;;5094815;28;20103;-69
2021/01/13 01:00:43;;;;;;;111.13;41.78;;;0.90;2201.60;;;;;;5094083;28;20487;-69
2021/01/13 01:03:10;;;;;;;107.70;38.88;;;0.80;2201.60;;;;;;5094697;28;20019;-69
2021/01/13 01:05:35;;;;;;;95.68;35.83;;;0.70;2201.60;;;;;;5094750;28;20490;-69
2021/01/13 01:08:01;;;;;;;103.30;36.35;;;0.60;2201.60;;;;;;5094761;28;20012;-70
2021/01/13 01:10:31;;;;;;;97.70;35.40;;;0.60;2201.60;;;;;;5094576;28;20081;-69
2021/01/13 01:12:57;;;;;;;96.25;34.22;;;0.50;2201.60;;;;;;5093488;28;20062;-70
2021/01/13 01:15:23;;;;;;;98.03;34.58;;;0.50;2201.60;;;;;;5093550;28;20024;-70
2021/01/13 01:17:48;;;;;;;88.45;34.60;;;0.50;2201.60;;;;;;5094418;28;20123;-71
2021/01/13 01:20:14;;;;;;;98.40;34.85;;;0.40;2201.60;;;;;;5094869;28;20395;-69
2021/01/13 01:22:56;;;;;;;98.53;35.70;;;0.40;2201.60;;;;;;5093410;28;20270;-70
2021/01/13 01:25:24;;;;;;;97.93;35.10;;;0.60;2201.60;;;;;;5094475;28;20132;-70
2021/01/13 01:27:50;;;;;;;98.82;34.78;;;0.60;2201.60;;;;;;5094593;28;20075;-71
2021/01/13 01:30:16;;;;;;;90.57;32.85;;;0.60;2201.60;;;;;;5094438;28;20020;-69
2021/01/13 01:32:42;;;;;;;88.35;32.47;;;0.60;2201.60;;;;;;5094710;28;20441;-70
2021/01/13 01:35:08;;;;;;;96.90;34.13;;;0.50;2201.60;;;;;;5094307;28;20063;-69
2021/01/13 01:37:37;;;;;;;82.25;31.88;;;0.50;2201.60;;;;;;5094188;28;20127;-70
2021/01/13 01:40:08;;;;;;;90.82;32.67;;;0.50;2201.60;;;;;;5094069;28;20045;-69
2021/01/13 01:42:34;;;;;;;97.80;33.25;;;0.50;2201.60;;;;;;5094425;28;20017;-70
2021/01/13 01:45:00;;;;;;;94.25;34.53;;;0.50;2201.60;;;;;;5094024;28;20062;-70
2021/01/13 01:47:57;;;;;;;87.25;29.92;;;0.50;2201.60;;;;;;5092908;28;20032;-70
2021/01/13 01:50:23;;;;;;;87.60;29.55;;;0.50;2201.60;;;;;;5076384;28;20082;-75
2021/01/13 01:52:54;;;;;;;87.88;31.92;;;0.50;2201.60;;;;;;5092792;28;20063;-71
2021/01/13 01:55:23;;;;;;;81.30;31.42;;;0.60;2201.60;;;;;;5092618;28;20028;-70
2021/01/13 01:57:48;;;;;;;86.32;31.35;;;0.70;2201.60;;;;;;5092779;28;20089;-70
2021/01/13 02:00:24;;;;;;;89.80;32.88;;;0.80;2201.60;;;;;;5109445;28;20481;-70
2021/01/13 02:02:54;;;;;;;96.65;33.17;;;0.90;2201.60;;;;;;5092045;28;20099;-70
2021/01/13 02:05:20;;;;;;;94.15;34.50;;;0.90;2201.60;;;;;;5093541;28;20099;-70
2021/01/13 02:07:46;;;;;;;97.55;38.05;;;0.90;2201.60;;;;;;5109896;27;20111;-70
2021/01/13 02:10:12;;;;;;;88.95;33.35;;;0.90;2201.60;;;;;;5092334;28;20480;-69
2021/01/13 02:12:38;;;;;;;86.65;31.83;;;0.90;2201.60;;;;;;5093596;28;20396;-70
2021/01/13 02:15:05;;;;;;;84.88;32.15;;;0.90;2201.60;;;;;;5109179;28;20035;-70
2021/01/13 02:17:35;;;;;;;93.72;32.80;;;0.90;2201.60;;;;;;5093443;28;20039;-73
2021/01/13 02:20:27;;;;;;;86.65;30.67;;;0.80;2201.60;;;;;;5093236;28;20503;-74
2021/01/13 02:23:01;;;;;;;83.72;30.55;;;0.80;2201.60;;;;;;5089347;28;20076;-69
2021/01/13 02:26:04;;;;;;;84.70;30.88;;;0.80;2201.60;;;;;;5093266;28;20023;-70
2021/01/13 02:28:29;;;;;;;82.32;29.13;;;0.80;2201.60;;;;;;5093434;28;20028;-70
2021/01/13 02:31:04;;;;;;;83.30;30.02;;;0.70;2201.60;;;;;;5109150;28;20024;-71
2021/01/13 02:33:40;;;;;;;85.75;29.77;;;0.70;2201.60;;;;;;5093054;28;20053;-71
2021/01/13 02:36:28;;;;;;;84.95;30.13;;;0.80;2201.60;;;;;;5091907;28;20051;-70
2021/01/13 02:38:53;;;;;;;81.38;29.98;;;0.80;2201.60;;;;;;5093071;28;20020;-70
2021/01/13 02:41:20;;;;;;;90.93;30.98;;;0.70;2201.60;;;;;;5091598;28;20384;-72
2021/01/13 02:43:58;;;;;;;91.80;32.08;;;0.70;2201.60;;;;;;5091758;28;20024;-71
2021/01/13 02:46:36;;;;;;;95.25;33.20;;;0.80;2201.60;;;;;;5091681;28;20370;-71
2021/01/13 02:49:02;;;;;;;93.30;32.75;;;0.90;2201.60;;;;;;5092793;28;20468;-69
2021/01/13 02:51:28;;;;;;;102.25;33.63;;;0.90;2201.60;;;;;;5091993;28;20035;-70
2021/01/13 02:53:55;;;;;;;102.35;35.83;;;0.90;2201.60;;;;;;5108592;28;20047;-70
2021/01/13 02:56:31;;;;;;;92.78;34.88;;;0.90;2201.60;;;;;;5092925;28;20042;-70
2021/01/13 02:59:08;;;;;;;98.00;37.17;;;0.90;2201.60;;;;;;5092950;28;20024;-69
2021/01/13 03:01:36;;;;;;;103.25;35.33;;;0.90;2201.60;;;;;;5092585;28;20020;-70
2021/01/13 03:04:02;;;;;;;108.75;37.47;;;25.60;2201.60;;;;;;5092746;28;20013;-70
2021/01/13 03:06:28;;;;;;;102.85;36.40;;;25.70;2201.60;;;;;;5091481;28;20025;-70
2021/01/13 03:09:04;;;;;;;110.53;36.20;;;25.70;2201.60;;;;;;5092576;28;20077;-70
2021/01/13 03:11:30;;;;;;;106.25;36.75;;;25.70;2201.60;;;;;;5091285;28;20736;-70
2021/01/13 03:13:57;;;;;;;91.78;35.72;;;25.60;2201.60;;;;;;5091801;28;20020;-68
2021/01/13 03:16:22;;;;;;;100.32;35.28;;;0.90;2201.60;;;;;;5092354;28;20141;-70
2021/01/13 03:19:04;;;;;;;98.40;34.03;;;0.80;2201.60;;;;;;5091158;28;20119;-70
2021/01/13 03:21:44;;;;;;;98.00;33.90;;;0.80;2201.60;;;;;;5092499;28;20032;-69
2021/01/13 03:24:18;;;;;;;93.03;32.42;;;0.70;2201.60;;;;;;5109484;27;20016;-70
2021/01/13 03:26:46;;;;;;;101.03;33.88;;;0.70;2201.60;;;;;;5092162;28;20074;-70
2021/01/13 03:29:18;;;;;;;100.13;34.97;;;0.90;2201.60;;;;;;5092671;28;20020;-70
2021/01/13 03:32:08;;;;;;;95.30;34.05;;;0.90;2201.60;;;;;;5091296;28;20099;-71
2021/01/13 03:35:05;;;;;;;91.38;33.50;;;25.60;2201.60;;;;;;5086878;28;20489;-74
2021/01/13 03:37:54;;;;;;;85.95;29.50;;;25.60;2201.60;;;;;;5086457;28;20068;-71
2021/01/13 03:40:20;;;;;;;79.43;28.92;;;25.70;2201.60;;;;;;5092231;28;20028;-68
2021/01/13 03:42:52;;;;;;;81.53;30.13;;;25.70;2201.60;;;;;;5092537;28;20411;-70
2021/01/13 03:45:33;;;;;;;84.35;30.98;;;25.70;2201.60;;;;;;5091880;28;20020;-70
2021/01/13 03:48:09;;;;;;;77.38;28.45;;;25.70;2201.60;;;;;;5092187;28;20024;-70
2021/01/13 03:50:39;;;;;;;92.13;30.83;;;25.80;2201.60;;;;;;5092111;28;20107;-71
2021/01/13 03:53:08;;;;;;;78.28;28.67;;;25.80;2201.60;;;;;;5092377;28;20020;-71
2021/01/13 03:55:36;;;;;;;80.10;28.80;;;25.80;2201.60;;;;;;5092367;28;20099;-70
2021/01/13 03:58:26;;;;;;;75.57;28.92;;;25.80;2201.60;;;;;;5092045;28;20332;-68
2021/01/13 04:01:22;;;;;;;76.22;30.27;;;25.80;2201.60;;;;;;5091901;28;20024;-71
2021/01/13 04:03:55;;;;;;;89.88;31.70;;;25.80;2201.60;;;;;;5092054;28;20023;-71
2021/01/13 04:06:21;;;;;;;80.97;31.48;;;25.70;2201.60;;;;;;5092087;28;20028;-74
2021/01/13 04:08:47;;;;;;;99.22;33.78;;;25.60;2201.60;;;;;;5092150;28;20035;-74
2021/01/13 04:11:14;;;;;;;92.50;31.88;;;25.60;2201.60;;;;;;5073814;28;20035;-71
2021/01/13 04:13:42;;;;;;;98.47;32.30;;;0.80;2201.60;;;;;;5092116;28;20060;-70
2021/01/13 04:16:09;;;;;;;91.93;32.00;;;0.60;2201.60;;;;;;5092015;28;20035;-70
2021/01/13 04:18:35;;;;;;;95.93;34.38;;;0.40;2201.60;;;;;;5091968;28;20044;-70
2021/01/13 04:21:01;;;;;;;96.38;32.83;;;0.40;2201.60;;;;;;5091989;28;20411;-73
2021/01/13 04:23:27;;;;;;;95.43;32.97;;;0.50;2201.60;;;;;;5090497;28;20030;-68
2021/01/13 04:25:53;;;;;;;95.50;32.08;;;0.50;2201.60;;;;;;5093757;28;20054;-70
2021/01/13 04:28:19;;;;;;;92.72;33.67;;;0.60;2201.60;;;;;;5094308;28;20411;-73
2021/01/13 04:30:45;;;;;;;88.03;32.65;;;0.70;2201.60;;;;;;5101944;28;20032;-73
2021/01/13 04:33:11;;;;;;;99.20;34.50;;;0.70;2201.60;;;;;;5103453;28;20047;-74
2021/01/13 04:35:36;;;;;;;145.40;47.20;;;0.60;2201.60;;;;;;5098323;28;20071;-74
2021/01/13 04:38:03;;;;;;;126.43;41.13;;;0.60;2201.60;;;;;;5111380;28;20056;-71
2021/01/13 04:40:36;;;;;;;132.35;42.97;;;0.50;2201.60;;;;;;5095190;28;20024;-69
2021/01/13 04:43:12;;;;;;;122.28;41.63;;;0.40;2201.60;;;;;;5095564;28;20024;-70
2021/01/13 04:45:40;;;;;;;129.27;42.03;;;0.40;2201.60;;;;;;5095214;28;20024;-70
2021/01/13 04:48:10;;;;;;;148.05;48.97;;;0.40;2201.60;;;;;;5094139;28;20050;-72
2021/01/13 04:50:40;;;;;;;114.68;38.88;;;0.40;2201.60;;;;;;5093958;28;20484;-70
2021/01/13 04:53:16;;;;;;;111.85;37.60;;;0.40;2201.60;;;;;;5095141;28;20028;-70
2021/01/13 04:55:55;;;;;;;105.65;37.28;;;0.40;2201.60;;;;;;5094923;28;20499;-70
2021/01/13 04:58:27;;;;;;;103.13;37.80;;;0.40;2201.60;;;;;;5095021;28;20039;-72
2021/01/13 05:00:59;;;;;;;106.57;38.38;;;0.40;2201.60;;;;;;5094879;28;20449;-69
2021/01/13 05:03:40;;;;;;;108.38;39.28;;;0.40;2201.60;;;;;;5095042;28;20496;-70
2021/01/13 05:06:36;;;;;;;121.95;41.08;;;0.40;2201.60;;;;;;5095118;28;20020;-70
2021/01/13 05:09:06;;;;;;;119.45;42.78;;;0.30;2201.60;;;;;;5094892;28;20024;-74
2021/01/13 05:11:40;;;;;;;131.75;44.85;;;0.40;2201.60;;;;;;5076810;28;20473;-73
2021/01/13 05:14:05;;;;;;;124.53;42.70;;;0.30;2201.60;;;;;;5093576;28;20036;-72
2021/01/13 05:16:40;;;;;;;124.93;42.38;;;0.30;2201.60;;;;;;5094689;28;20502;-70
2021/01/13 05:19:05;;;;;;;114.60;40.22;;;0.40;2201.60;;;;;;5093395;28;20047;-70
2021/01/13 05:21:31;;;;;;;122.38;42.17;;;0.30;2201.60;;;;;;5093181;28;20413;-71
2021/01/13 05:23:57;;;;;;;123.57;42.17;;;0.20;2201.60;;;;;;5110384;28;20024;-73
2021/01/13 05:26:26;;;;;;;126.88;41.35;;;0.20;2201.60;;;;;;5110290;28;20031;-71
2021/01/13 05:29:04;;;;;;;116.22;40.10;;;0.10;2201.60;;;;;;5094504;28;20104;-73
2021/01/13 05:31:34;;;;;;;116.97;39.85;;;0.20;2201.60;;;;;;5094322;28;20081;-74
2021/01/13 05:34:04;;;;;;;119.93;38.78;;;0.20;2201.60;;;;;;5094274;28;20024;-70
2021/01/13 05:36:30;;;;;;;112.70;39.83;;;0.20;2201.60;;;;;;5093813;28;20051;-71
2021/01/13 05:38:56;;;;;;;109.43;38.10;;;0.30;2201.60;;;;;;5093966;28;20074;-72
2021/01/13 05:41:22;;;;;;;117.85;40.17;;;0.30;2201.60;;;;;;5094039;28;20067;-76
2021/01/13 05:43:48;;;;;;;118.72;41.85;;;0.30;2201.60;;;;;;5092904;28;20024;-72
2021/01/13 05:46:18;;;;;;;118.97;41.38;;;0.40;2201.60;;;;;;5094132;28;20024;-74
2021/01/13 05:48:47;;;;;;;119.00;40.88;;;0.40;2201.60;;;;;;5094009;28;20103;-74
2021/01/13 05:51:13;;;;;;;138.35;44.72;;;0.30;2201.60;;;;;;5092947;28;20028;-70
2021/01/13 05:53:39;;;;;;;156.68;51.78;;;0.30;2201.60;;;;;;5093943;28;20020;-74
2021/01/13 05:56:05;;;;;;;131.32;43.55;;;0.40;2201.60;;;;;;5092528;28;20499;-74
2021/01/13 05:58:31;;;;;;;125.38;41.17;;;0.40;2201.60;;;;;;5093014;28;20469;-74
2021/01/13 06:00:58;;;;;;;132.63;42.60;;;0.30;2201.60;;;;;;5093649;28;20035;-74
2021/01/13 06:03:30;;;;;;;121.55;41.20;;;0.20;2201.60;;;;;;5092584;28;20020;-74
2021/01/13 06:05:56;;;;;;;128.52;41.50;;;0.30;2201.60;;;;;;5093573;28;20058;-74
2021/01/13 06:08:27;;;;;;;119.80;40.88;;;0.40;2201.60;;;;;;5092574;28;20016;-74
2021/01/13 06:10:56;;;;;;;;;;;0.30;2201.60;;;;;;5094027;28;20024;-70
2021/01/13 06:13:26;;;;;;;133.32;46.15;;;0.30;2201.60;;;;;;5093732;28;19904;-70
2021/01/13 06:15:52;;;;;;;118.20;42.10;;;0.30;2201.60;;;;;;5092539;28;20154;-70
2021/01/13 06:18:21;;;;;;;119.25;41.92;;;0.30;2201.60;;;;;;5108651;28;20467;-70
2021/01/13 06:20:47;;;;;;;130.43;41.30;;;0.40;2201.60;;;;;;5093428;28;20173;-70
2021/01/13 06:23:13;;;;;;;117.55;39.88;;;0.30;2201.60;;;;;;5093229;28;20532;-70
2021/01/13 06:25:39;;;;;;;118.03;40.00;;;0.50;2201.60;;;;;;5109237;27;20023;-69
2021/01/13 06:28:19;;;;;;;135.20;46.53;;;0.60;2201.60;;;;;;5108881;28;20477;-70
2021/01/13 06:30:45;;;;;;;;;;;0.70;2201.60;;;;;;5093762;28;20024;-69
2021/01/13 06:33:22;;;;;;;118.50;39.65;;;0.70;2201.60;;;;;;5126055;27;20292;-69
2021/01/13 06:36:00;;;;;;;120.18;41.08;;;0.80;2201.60;;;;;;5093294;28;20028;-69
2021/01/13 06:38:29;;;;;;;124.72;42.97;;;0.90;2201.60;;;;;;5092209;28;20028;-71
2021/01/13 06:40:59;;;;;;;115.32;42.50;;;25.60;2201.60;;;;;;5091841;28;20095;-70
2021/01/13 06:43:25;;;;;;;120.57;41.83;;;25.60;2201.60;;;;;;5092952;28;20352;-70
2021/01/13 06:45:50;;;;;;;115.68;40.65;;;25.60;2201.60;;;;;;5093144;28;20052;-70
2021/01/13 06:48:25;;;;;;;109.63;39.83;;;25.60;2201.60;;;;;;5092883;28;20028;-74
2021/01/13 06:50:56;;;;;;;106.45;38.42;;;25.60;2201.60;;;;;;5091789;28;20020;-74
2021/01/13 06:53:21;;;;;;;101.82;38.00;;;25.80;2201.60;;;;;;5091780;28;20043;-74
2021/01/13 06:55:47;;;;;;;112.07;40.08;;;25.80;2201.60;;;;;;5108374;28;20055;-74
2021/01/13 06:58:15;;;;;;;147.40;52.03;;;25.90;2201.60;;;;;;5108393;28;20081;-70
2021/01/13 07:00:46;;;;;;;151.70;56.05;;;25.90;2201.60;;;;;;5092106;28;20031;-70
2021/01/13 07:03:29;;;;;;;;;;;26.10;2201.60;;;;;;5078475;28;20548;-73
2021/01/13 07:06:01;;;;;;;120.28;42.67;;;26.10;2201.60;;;;;;5092472;28;19914;-74
2021/01/13 07:08:27;;;;;;;119.68;43.97;;;26.20;2201.60;;;;;;5091533;28;20467;-74
2021/01/13 07:11:08;;;;;;;124.97;46.13;;;26.20;2201.60;;;;;;5103717;28;20103;-74
2021/01/13 07:13:41;;;;;;;157.80;65.45;;;26.20;2201.60;;;;;;5079492;28;20052;-69
2021/01/13 07:16:07;;;;;;;112.88;41.47;;;26.50;2201.60;;;;;;5092305;28;20020;-70
2021/01/13 07:18:33;;;;;;;119.13;43.90;;;51.20;2227.20;;;;;;5092417;28;20052;-69
2021/01/13 07:21:09;;;;;;;116.60;42.45;;;51.20;2227.20;;;;;;5092359;28;20039;-74
2021/01/13 07:23:36;;;;;;;112.95;42.78;;;26.50;2201.60;;;;;;5092512;28;20051;-68
2021/01/13 07:26:01;;;;;;;112.28;40.50;;;26.30;2201.60;;;;;;5092415;28;20103;-73
2021/01/13 07:28:27;;;;;;;129.55;47.70;;;26.40;2201.60;;;;;;5092308;28;20111;-73
2021/01/13 07:30:53;;;;;;;125.00;46.50;;;26.50;2201.60;;;;;;5092378;28;20021;-75
2021/01/13 07:33:19;;;;;;;128.63;46.75;;;26.50;2201.60;;;;;;5101326;28;20039;-77
2021/01/13 07:35:49;;;;;;;129.20;46.60;;;26.40;2201.60;;;;;;5072811;28;20032;-70
2021/01/13 07:38:19;;;;;;;120.40;44.40;;;26.30;2201.60;;;;;;5090668;28;20024;-69
2021/01/13 07:41:07;;;;;;;147.85;50.53;;;26.30;2201.60;;;;;;5091662;28;20024;-69
2021/01/13 07:43:38;;;;;;;119.30;44.53;;;26.20;2201.60;;;;;;5091874;28;20020;-70
2021/01/13 07:46:04;;;;;;;122.78;44.80;;;26.40;2201.60;;;;;;5091656;28;20415;-73
2021/01/13 07:48:29;;;;;;;123.80;45.25;;;26.40;2201.60;;;;;;5105700;28;20065;-73
2021/01/13 07:51:07;;;;;;;125.78;46.40;;;51.20;2227.20;;;;;;5092111;28;20059;-73
2021/01/13 07:53:36;;;;;;;108.10;40.30;;;51.30;2227.20;;;;;;5090785;28;20028;-75
2021/01/13 07:56:04;;;;;;;96.55;38.13;;;51.40;2227.20;;;;;;5090728;28;20016;-76
2021/01/13 07:58:31;;;;;;;99.40;37.60;;;51.50;2227.20;;;;;;5091015;28;20027;-76
2021/01/13 08:01:18;;;;;;;104.85;39.15;;;51.60;2227.20;;;;;;5092174;28;20020;-74
2021/01/13 08:04:02;;;;;;;99.82;38.15;;;51.30;2227.20;;;;;;5095975;28;20103;-78
2021/01/13 08:06:34;;;;;;;107.63;39.70;;;51.30;2227.20;;;;;;5099285;28;20030;-77
2021/01/13 08:09:07;;;;;;;104.07;39.67;;;51.70;2227.20;;;;;;5077422;28;20063;-76
2021/01/13 08:11:51;;;;;;;107.47;40.70;;;51.30;2227.20;;;;;;5095551;28;20091;-75
2021/01/13 08:14:33;;;;;;;101.18;39.45;;;51.80;2227.20;;;;;;5095435;28;20032;-76
2021/01/13 08:17:26;;;;;;;107.82;39.33;;;52.00;2227.20;;;;;;5093411;28;20020;-77
2021/01/13 08:20:30;;;;;;;99.80;39.65;;;77.10;2227.20;;;;;;5092973;28;20123;-75
2021/01/13 08:23:16;;;;;;;107.65;40.28;;;77.50;2227.20;;;;;;5094565;28;20020;-68
2021/01/13 08:25:50;;;;;;;102.03;39.05;;;102.40;2201.60;;;;;;5095050;28;20024;-78
2021/01/13 08:28:15;;;;;;;93.68;37.42;;;102.70;2176.00;;;;;;5064984;28;20552;-75
2021/01/13 08:30:42;;;;;;;92.43;37.85;;;102.90;2150.40;;;;;;5093128;28;20127;-70
2021/01/13 08:33:18;;;;;;;98.43;37.67;;;103.00;2124.80;;;;;;5094423;28;20125;-72
2021/01/13 08:35:46;;;;;;;98.97;37.53;;;103.10;2124.80;;;;;;5094262;28;20040;-74
2021/01/13 08:38:12;;;;;;;96.07;37.25;;;103.20;2099.20;;;;;;5093931;28;20036;-68
2021/01/13 08:40:38;;;;;;;108.00;42.10;;;102.70;2099.20;;;;;;5094807;28;20353;-73
2021/01/13 08:43:26;;;;;;;93.18;37.72;;;102.90;2124.80;;;;;;5095086;28;20111;-76
2021/01/13 08:45:52;;;;;;;90.03;35.72;;;102.80;2099.20;;;;;;5095097;28;20028;-74
2021/01/13 08:48:19;;;;;;;86.85;35.13;;;102.90;2099.20;;;;;;5095029;28;20433;-71
2021/01/13 08:51:03;;;;;;;94.28;37.00;;;103.00;2099.20;;;;;;5095125;28;20030;-70
2021/01/13 08:53:29;;;;;;;77.00;32.50;;;103.20;2099.20;;;;;;5095505;28;20503;-71
2021/01/13 08:55:54;;;;;;;79.20;32.28;;;103.10;2073.60;;;;;;5095682;28;20028;-70
2021/01/13 08:58:38;;;;;;;85.80;32.95;;;103.20;2073.60;;;;;;5095925;28;20081;-74
2021/01/13 09:01:28;;;;;;;86.60;35.38;;;103.30;2073.60;;;;;;5111345;28;20031;-69
2021/01/13 09:03:54;;;;;;;86.55;32.67;;;103.20;2073.60;;;;;;5096776;28;20070;-75
2021/01/13 09:06:20;;;;;;;102.10;42.28;;;103.10;2073.60;;;;;;5076866;28;20032;-71
2021/01/13 09:08:53;;;;;;;95.53;38.38;;;103.30;2073.60;;;;;;5095111;28;20318;-75
2021/01/13 09:11:33;;;;;;;104.85;40.75;;;128.10;2048.00;;;;;;5094738;28;20043;-71
2021/01/13 09:14:21;;;;;;;128.43;51.90;;;128.50;2022.40;;;;;;5094413;28;20081;-76
2021/01/13 09:16:53;;;;;;;157.32;60.40;;;128.10;2048.00;;;;;;5066690;28;20038;-71
2021/01/13 09:19:31;;;;;;;120.05;48.08;;;103.20;2022.40;;;;;;5094276;28;20048;-76
2021/01/13 09:22:01;;;;;;;119.07;44.90;;;103.30;2048.00;;;;;;5081436;28;20024;-71
2021/01/13 09:24:28;;;;;;;99.85;41.78;;;103.00;2048.00;;;;;;5094961;28;20024;-74
2021/01/13 09:26:54;;;;;;;101.03;43.28;;;103.20;2048.00;;;;;;5110672;27;20020;-75
2021/01/13 09:29:20;;;;;;;102.32;41.17;;;103.00;2073.60;;;;;;5096314;28;20035;-76
2021/01/13 09:32:08;;;;;;;113.60;44.05;;;102.70;2099.20;;;;;;5094470;28;20047;-74
2021/01/13 09:34:37;;;;;;;107.70;43.17;;;102.60;2124.80;;;;;;5094968;28;20024;-75
2021/01/13 09:37:03;;;;;;;118.15;44.72;;;103.00;2099.20;;;;;;5094402;28;20031;-76
2021/01/13 09:39:33;;;;;;;122.00;48.55;;;103.30;2048.00;;;;;;5098239;28;20020;-76
2021/01/13 09:41:59;;;;;;;104.97;45.80;;;128.40;2048.00;;;;;;5094376;28;20031;-75
2021/01/13 09:44:30;;;;;;;102.72;41.72;;;128.60;1996.80;;;;;;5093176;28;20480;-75
2021/01/13 09:46:56;;;;;;;100.10;39.38;;;128.40;2022.40;;;;;;5094182;28;20024;-75
2021/01/13 09:49:22;;;;;;;98.65;40.58;;;103.10;1996.80;;;;;;5092933;28;20107;-73
2021/01/13 09:51:47;;;;;;;92.32;37.35;;;102.90;2073.60;;;;;;5094348;28;20115;-75
2021/01/13 09:54:14;;;;;;;88.32;36.55;;;102.60;2073.60;;;;;;5094197;28;20020;-75
2021/01/13 09:56:39;;;;;;;88.18;35.55;;;77.70;2099.20;;;;;;5094173;28;20027;-69
2021/01/13 09:59:08;;;;;;;98.68;39.38;;;77.70;2124.80;;;;;;5093877;28;20026;-69
2021/01/13 10:01:38;;;;;;;96.85;42.28;;;102.40;2124.80;;;;;;5093843;28;20484;-70
2021/01/13 10:04:11;;;;;;;104.70;40.83;;;77.50;2150.40;;;;;;5094199;28;20089;-75
2021/01/13 10:06:41;;;;;;;105.88;41.65;;;77.50;2176.00;;;;;;5080342;28;20051;-75
2021/01/13 10:09:11;;;;;;;118.10;47.20;;;77.70;2150.40;;;;;;5093832;28;20035;-71
2021/01/13 10:11:37;;;;;;;120.97;48.63;;;102.60;2124.80;;;;;;5079576;28;20037;-74
2021/01/13 10:14:04;;;;;;;119.75;49.17;;;103.00;2073.60;;;;;;5092657;28;20133;-76
2021/01/13 10:16:30;;;;;;;119.60;49.75;;;103.30;2048.00;;;;;;5092356;28;20052;-76
2021/01/13 10:19:02;;;;;;;122.53;51.28;;;128.20;2022.40;;;;;;5093284;28;20074;-69
2021/01/13 10:21:38;;;;;;;105.05;42.65;;;103.00;2073.60;;;;;;5093278;28;20486;-74
2021/01/13 10:24:09;;;;;;;132.48;56.25;;;103.00;2048.00;;;;;;5091852;28;20069;-75
2021/01/13 10:26:39;;;;;;;115.28;49.10;;;102.90;2073.60;;;;;;5092286;28;20073;-75
2021/01/13 10:29:08;;;;;;;136.05;55.28;;;102.80;2073.60;;;;;;5092117;28;20055;-70
2021/01/13 10:31:34;;;;;;;112.35;45.03;;;102.80;2099.20;;;;;;5091881;28;20024;-73
2021/01/13 10:33:59;;;;;;;105.18;43.45;;;102.60;2124.80;;;;;;5093174;28;20030;-72
2021/01/13 10:36:31;;;;;;;110.15;45.05;;;102.40;2150.40;;;;;;5092458;28;20032;-75
2021/01/13 10:39:02;;;;;;;105.18;45.00;;;77.60;2150.40;;;;;;5080501;28;20032;-69
2021/01/13 10:41:36;;;;;;;110.68;44.97;;;77.60;2176.00;;;;;;5092435;28;20020;-75
2021/01/13 10:44:09;;;;;;;93.65;39.90;;;102.40;2124.80;;;;;;5089432;28;20052;-75
2021/01/13 10:47:00;;;;;;;100.55;43.88;;;77.70;2150.40;;;;;;5092598;28;20020;-80
2021/01/13 10:49:46;;;;;;;100.43;41.58;;;102.70;2124.80;;;;;;5068773;28;20051;-78
2021/01/13 10:52:19;;;;;;;100.07;45.40;;;102.70;2099.20;;;;;;5071766;28;20116;-75
2021/01/13 10:54:49;;;;;;;94.93;38.95;;;102.80;2099.20;;;;;;5092250;28;20415;-68
2021/01/13 10:57:15;;;;;;;100.30;43.00;;;102.90;2048.00;;;;;;5092992;28;20052;-70
2021/01/13 10:59:43;;;;;;;89.63;39.60;;;103.10;2022.40;;;;;;5092507;28;20016;-69
2021/01/13 11:02:13;;;;;;;92.50;41.20;;;103.20;2022.40;;;;;;5092914;28;20499;-69
2021/01/13 11:04:42;;;;;;;78.63;34.10;;;103.30;2022.40;;;;;;5092382;28;20099;-73
2021/01/13 11:07:10;;;;;;;92.13;43.33;;;102.70;2073.60;;;;;;5092141;28;20388;-72
2021/01/13 11:09:37;;;;;;;105.80;48.78;;;102.70;2099.20;;;;;;5091367;28;20473;-72
2021/01/13 11:12:03;;;;;;;96.60;43.58;;;102.50;2124.80;;;;;;5085162;28;20035;-69
2021/01/13 11:14:37;;;;;;;105.28;42.85;;;77.70;2150.40;;;;;;5090993;28;20370;-69
2021/01/13 11:17:09;;;;;;;102.22;40.97;;;77.60;2176.00;;;;;;5092104;28;20113;-72
2021/01/13 11:19:35;;;;;;;98.50;41.50;;;77.70;2150.40;;;;;;5072015;28;20040;-72
2021/01/13 11:22:00;;;;;;;93.53;39.65;;;77.50;2176.00;;;;;;5090682;28;20450;-71
2021/01/13 11:24:37;;;;;;;91.30;37.83;;;77.60;2176.00;;;;;;5086762;28;20016;-67
2021/01/13 11:27:12;;;;;;;89.72;38.42;;;77.50;2176.00;;;;;;5092389;28;20016;-74
2021/01/13 11:29:40;;;;;;;96.07;39.58;;;77.60;2176.00;;;;;;5092026;28;20091;-72
2021/01/13 11:32:06;;;;;;;90.35;40.50;;;77.50;2176.00;;;;;;5090933;28;20047;-76
2021/01/13 11:34:32;;;;;;;92.30;37.90;;;102.50;2124.80;;;;;;5089959;28;20024;-79
2021/01/13 11:37:26;;;;;;;89.43;38.90;;;102.40;2124.80;;;;;;5101782;28;20019;-72
2021/01/13 11:40:03;;;;;;;104.57;42.38;;;102.50;2124.80;;;;;;5092099;28;20048;-73
2021/01/13 11:43:06;;;;;;;105.25;44.45;;;102.50;2124.80;;;;;;5090501;28;20055;-70
2021/01/13 11:45:53;;;;;;;140.63;59.35;;;102.50;2124.80;;;;;;5089037;28;20027;-67
2021/01/13 11:48:24;;;;;;;146.23;61.03;;;102.40;2150.40;;;;;;5091978;28;20016;-66
2021/01/13 11:50:50;;;;;;;116.05;53.95;;;77.60;2150.40;;;;;;5089430;28;20028;-68
2021/01/13 11:53:20;;;;;;;148.43;70.28;;;77.20;2201.60;;;;;;5066556;28;20495;-71
2021/01/13 11:55:46;;;;;;;138.73;58.03;;;77.30;2201.60;;;;;;5089462;28;20024;-68
2021/01/13 11:58:15;;;;;;;146.85;63.28;;;77.30;2201.60;;;;;;5089012;28;20748;-69
2021/01/13 12:00:41;;;;;;;131.40;53.40;;;77.20;2227.20;;;;;;5092116;28;20423;-69
2021/01/13 12:03:06;;;;;;;127.80;53.15;;;77.10;2227.20;;;;;;5090424;28;20222;-69
2021/01/13 12:05:32;;;;;;;97.70;40.78;;;76.90;2227.20;;;;;;5090695;28;20028;-70
2021/01/13 12:08:06;;;;;;;90.97;39.53;;;76.80;2227.20;;;;;;5091183;28;20020;-71
2021/01/13 12:10:36;;;;;;;110.43;47.33;;;76.80;2227.20;;;;;;5089138;28;20039;-73
2021/01/13 12:13:11;;;;;;;114.05;50.75;;;76.80;2227.20;;;;;;5087698;28;20024;-66
2021/01/13 12:16:06;;;;;;;97.15;43.67;;;76.90;2227.20;;;;;;5089709;28;20024;-67
2021/01/13 12:18:33;;;;;;;107.13;45.83;;;77.10;2227.20;;;;;;5052387;28;20126;-68
2021/01/13 12:21:28;;;;;;;110.07;46.70;;;77.10;2227.20;;;;;;5090760;28;20051;-67
2021/01/13 12:23:53;;;;;;;90.85;39.03;;;77.40;2227.20;;;;;;5083771;28;20028;-71
2021/01/13 12:26:33;;;;;;;76.85;32.85;;;77.40;2201.60;;;;;;5081832;28;20032;-70